sensor_id;sensor_type;location;lat;lon;timestamp;P1;durP1;ratioP1;P2;durP2;ratioP2
19137;SDS011;68178;52.188;5.598;2023-04-29T00:00:24;42.45;;;30.15;;
19137;SDS011;68178;52.188;5.598;2023-04-29T00:02:52;46.30;;;27.92;;
19137;SDS011;68178;52.188;5.598;2023-04-29T00:05:17;45.47;;;29.40;;
19137;SDS011;68178;52.188;5.598;2023-04-29T00:07:43;42.65;;;27.63;;
19137;SDS011;68178;52.188;5.598;2023-04-29T00:10:08;43.70;;;28.42;;
19137;SDS011;68178;52.188;5.598;2023-04-29T00:12:36;44.55;;;28.05;;
19137;SDS011;68178;52.188;5.598;2023-04-29T00:15:01;42.45;;;26.55;;
19137;SDS011;68178;52.188;5.598;2023-04-29T00:17:27;42.72;;;26.25;;
19137;SDS011;68178;52.188;5.598;2023-04-29T00:19:53;39.95;;;26.27;;
19137;SDS011;68178;52.188;5.598;2023-04-29T00:22:18;40.40;;;26.00;;
19137;SDS011;68178;52.188;5.598;2023-04-29T00:24:45;36.60;;;25.55;;
19137;SDS011;68178;52.188;5.598;2023-04-29T00:27:11;39.03;;;25.38;;
19137;SDS011;68178;52.188;5.598;2023-04-29T00:29:36;39.70;;;25.13;;
19137;SDS011;68178;52.188;5.598;2023-04-29T00:32:02;41.83;;;25.67;;
19137;SDS011;68178;52.188;5.598;2023-04-29T00:34:28;42.08;;;25.63;;
19137;SDS011;68178;52.188;5.598;2023-04-29T00:36:54;36.25;;;24.25;;
19137;SDS011;68178;52.188;5.598;2023-04-29T00:39:19;34.05;;;22.92;;
19137;SDS011;68178;52.188;5.598;2023-04-29T00:41:45;37.33;;;24.27;;
19137;SDS011;68178;52.188;5.598;2023-04-29T00:44:10;33.97;;;23.58;;
19137;SDS011;68178;52.188;5.598;2023-04-29T00:46:36;34.17;;;23.67;;
19137;SDS011;68178;52.188;5.598;2023-04-29T00:49:02;37.13;;;24.45;;
19137;SDS011;68178;52.188;5.598;2023-04-29T00:51:29;40.40;;;24.77;;
19137;SDS011;68178;52.188;5.598;2023-04-29T00:53:55;34.80;;;24.65;;
19137;SDS011;68178;52.188;5.598;2023-04-29T00:56:21;36.83;;;25.20;;
19137;SDS011;68178;52.188;5.598;2023-04-29T00:58:47;34.85;;;24.45;;
19137;SDS011;68178;52.188;5.598;2023-04-29T01:01:17;37.92;;;24.27;;
19137;SDS011;68178;52.188;5.598;2023-04-29T01:03:44;33.38;;;23.42;;
19137;SDS011;68178;52.188;5.598;2023-04-29T01:12:10;41.22;;;24.73;;
19137;SDS011;68178;52.188;5.598;2023-04-29T01:14:53;38.50;;;25.13;;
19137;SDS011;68178;52.188;5.598;2023-04-29T01:17:35;39.92;;;26.67;;
19137;SDS011;68178;52.188;5.598;2023-04-29T01:20:06;39.13;;;27.08;;
19137;SDS011;68178;52.188;5.598;2023-04-29T01:22:34;37.92;;;26.15;;
19137;SDS011;68178;52.188;5.598;2023-04-29T01:25:00;42.13;;;27.42;;
19137;SDS011;68178;52.188;5.598;2023-04-29T01:27:30;43.10;;;25.67;;
19137;SDS011;68178;52.188;5.598;2023-04-29T01:30:16;45.13;;;26.70;;
19137;SDS011;68178;52.188;5.598;2023-04-29T01:35:44;40.65;;;27.40;;
19137;SDS011;68178;52.188;5.598;2023-04-29T01:44:03;44.42;;;26.25;;
19137;SDS011;68178;52.188;5.598;2023-04-29T01:46:34;38.22;;;24.60;;
19137;SDS011;68178;52.188;5.598;2023-04-29T01:49:01;36.63;;;23.92;;
19137;SDS011;68178;52.188;5.598;2023-04-29T01:51:27;38.88;;;24.70;;
19137;SDS011;68178;52.188;5.598;2023-04-29T01:53:53;35.22;;;23.40;;
19137;SDS011;68178;52.188;5.598;2023-04-29T01:56:19;34.58;;;23.23;;
19137;SDS011;68178;52.188;5.598;2023-04-29T01:58:44;38.30;;;23.70;;
19137;SDS011;68178;52.188;5.598;2023-04-29T02:01:10;33.03;;;23.02;;
19137;SDS011;68178;52.188;5.598;2023-04-29T02:03:36;36.38;;;23.65;;
19137;SDS011;68178;52.188;5.598;2023-04-29T02:06:02;36.50;;;23.13;;
19137;SDS011;68178;52.188;5.598;2023-04-29T02:08:31;35.65;;;22.45;;
19137;SDS011;68178;52.188;5.598;2023-04-29T02:10:57;34.60;;;22.38;;
19137;SDS011;68178;52.188;5.598;2023-04-29T02:13:23;34.42;;;22.55;;
19137;SDS011;68178;52.188;5.598;2023-04-29T02:15:49;36.58;;;23.10;;
19137;SDS011;68178;52.188;5.598;2023-04-29T02:18:15;36.63;;;23.25;;
19137;SDS011;68178;52.188;5.598;2023-04-29T02:20:40;37.00;;;24.15;;
19137;SDS011;68178;52.188;5.598;2023-04-29T02:23:06;37.20;;;23.08;;
19137;SDS011;68178;52.188;5.598;2023-04-29T02:25:32;36.13;;;23.27;;
19137;SDS011;68178;52.188;5.598;2023-04-29T02:27:58;32.63;;;21.70;;
19137;SDS011;68178;52.188;5.598;2023-04-29T02:30:23;34.15;;;22.60;;
19137;SDS011;68178;52.188;5.598;2023-04-29T02:32:49;35.22;;;22.55;;
19137;SDS011;68178;52.188;5.598;2023-04-29T02:35:15;32.63;;;21.80;;
19137;SDS011;68178;52.188;5.598;2023-04-29T02:37:40;35.08;;;22.48;;
19137;SDS011;68178;52.188;5.598;2023-04-29T02:40:06;32.45;;;21.27;;
19137;SDS011;68178;52.188;5.598;2023-04-29T02:42:32;31.40;;;20.60;;
19137;SDS011;68178;52.188;5.598;2023-04-29T02:44:58;29.15;;;20.63;;
19137;SDS011;68178;52.188;5.598;2023-04-29T02:47:23;31.85;;;20.60;;
19137;SDS011;68178;52.188;5.598;2023-04-29T02:49:49;29.70;;;20.38;;
19137;SDS011;68178;52.188;5.598;2023-04-29T02:52:14;31.48;;;21.00;;
19137;SDS011;68178;52.188;5.598;2023-04-29T02:54:41;33.17;;;20.50;;
19137;SDS011;68178;52.188;5.598;2023-04-29T02:57:07;27.15;;;18.40;;
19137;SDS011;68178;52.188;5.598;2023-04-29T02:59:32;26.08;;;19.13;;
19137;SDS011;68178;52.188;5.598;2023-04-29T03:02:01;27.77;;;19.27;;
19137;SDS011;68178;52.188;5.598;2023-04-29T03:04:26;29.25;;;21.08;;
19137;SDS011;68178;52.188;5.598;2023-04-29T03:06:53;28.98;;;19.92;;
19137;SDS011;68178;52.188;5.598;2023-04-29T03:09:23;29.65;;;20.40;;
19137;SDS011;68178;52.188;5.598;2023-04-29T03:11:49;31.95;;;22.50;;
19137;SDS011;68178;52.188;5.598;2023-04-29T03:14:17;32.53;;;22.67;;
19137;SDS011;68178;52.188;5.598;2023-04-29T03:16:42;38.10;;;23.92;;
19137;SDS011;68178;52.188;5.598;2023-04-29T03:19:08;32.10;;;23.70;;
19137;SDS011;68178;52.188;5.598;2023-04-29T03:21:34;41.28;;;25.80;;
19137;SDS011;68178;52.188;5.598;2023-04-29T03:23:59;35.35;;;24.45;;
19137;SDS011;68178;52.188;5.598;2023-04-29T03:26:25;38.08;;;25.35;;
19137;SDS011;68178;52.188;5.598;2023-04-29T03:28:50;35.17;;;24.70;;
19137;SDS011;68178;52.188;5.598;2023-04-29T03:31:16;41.08;;;26.40;;
19137;SDS011;68178;52.188;5.598;2023-04-29T03:33:42;39.17;;;26.02;;
19137;SDS011;68178;52.188;5.598;2023-04-29T03:36:08;40.38;;;27.77;;
19137;SDS011;68178;52.188;5.598;2023-04-29T03:38:34;40.05;;;26.70;;
19137;SDS011;68178;52.188;5.598;2023-04-29T03:41:00;37.28;;;26.17;;
19137;SDS011;68178;52.188;5.598;2023-04-29T03:43:26;34.22;;;25.30;;
19137;SDS011;68178;52.188;5.598;2023-04-29T03:45:52;36.20;;;26.10;;
19137;SDS011;68178;52.188;5.598;2023-04-29T03:48:17;40.55;;;26.98;;
19137;SDS011;68178;52.188;5.598;2023-04-29T03:50:46;43.67;;;26.40;;
19137;SDS011;68178;52.188;5.598;2023-04-29T03:53:15;37.13;;;26.67;;
19137;SDS011;68178;52.188;5.598;2023-04-29T03:55:41;43.03;;;27.90;;
19137;SDS011;68178;52.188;5.598;2023-04-29T03:58:06;38.60;;;26.85;;
19137;SDS011;68178;52.188;5.598;2023-04-29T04:00:32;40.35;;;26.70;;
19137;SDS011;68178;52.188;5.598;2023-04-29T04:02:58;40.40;;;26.45;;
19137;SDS011;68178;52.188;5.598;2023-04-29T04:05:24;40.47;;;27.20;;
19137;SDS011;68178;52.188;5.598;2023-04-29T04:07:50;35.45;;;26.65;;
19137;SDS011;68178;52.188;5.598;2023-04-29T04:10:16;37.55;;;26.40;;
19137;SDS011;68178;52.188;5.598;2023-04-29T04:12:45;38.40;;;25.55;;
19137;SDS011;68178;52.188;5.598;2023-04-29T04:15:11;38.40;;;26.27;;
19137;SDS011;68178;52.188;5.598;2023-04-29T04:17:37;40.70;;;27.95;;
19137;SDS011;68178;52.188;5.598;2023-04-29T04:20:03;31.85;;;25.08;;
19137;SDS011;68178;52.188;5.598;2023-04-29T04:22:31;38.10;;;25.98;;
19137;SDS011;68178;52.188;5.598;2023-04-29T04:24:57;34.40;;;24.00;;
19137;SDS011;68178;52.188;5.598;2023-04-29T04:27:22;35.65;;;25.00;;
19137;SDS011;68178;52.188;5.598;2023-04-29T04:29:52;32.58;;;23.30;;
19137;SDS011;68178;52.188;5.598;2023-04-29T04:32:18;37.15;;;24.13;;
19137;SDS011;68178;52.188;5.598;2023-04-29T04:34:45;30.15;;;23.42;;
19137;SDS011;68178;52.188;5.598;2023-04-29T04:37:12;33.83;;;23.55;;
19137;SDS011;68178;52.188;5.598;2023-04-29T04:39:47;33.85;;;23.27;;
19137;SDS011;68178;52.188;5.598;2023-04-29T04:42:12;31.40;;;22.70;;
19137;SDS011;68178;52.188;5.598;2023-04-29T04:44:38;30.55;;;22.90;;
19137;SDS011;68178;52.188;5.598;2023-04-29T04:47:03;32.00;;;23.88;;
19137;SDS011;68178;52.188;5.598;2023-04-29T04:49:30;32.67;;;23.73;;
19137;SDS011;68178;52.188;5.598;2023-04-29T04:51:58;30.38;;;22.38;;
19137;SDS011;68178;52.188;5.598;2023-04-29T04:54:24;30.95;;;23.60;;
19137;SDS011;68178;52.188;5.598;2023-04-29T04:56:49;30.23;;;22.98;;
19137;SDS011;68178;52.188;5.598;2023-04-29T04:59:16;30.58;;;23.52;;
19137;SDS011;68178;52.188;5.598;2023-04-29T05:01:41;32.28;;;23.48;;
19137;SDS011;68178;52.188;5.598;2023-04-29T05:04:07;34.03;;;23.33;;
19137;SDS011;68178;52.188;5.598;2023-04-29T05:06:32;32.13;;;22.92;;
19137;SDS011;68178;52.188;5.598;2023-04-29T05:08:58;32.15;;;22.58;;
19137;SDS011;68178;52.188;5.598;2023-04-29T05:11:23;32.10;;;23.88;;
19137;SDS011;68178;52.188;5.598;2023-04-29T05:13:49;32.40;;;23.40;;
19137;SDS011;68178;52.188;5.598;2023-04-29T05:16:14;34.10;;;23.15;;
19137;SDS011;68178;52.188;5.598;2023-04-29T05:18:41;33.33;;;24.63;;
19137;SDS011;68178;52.188;5.598;2023-04-29T05:21:09;30.85;;;23.38;;
19137;SDS011;68178;52.188;5.598;2023-04-29T05:23:35;33.88;;;23.38;;
19137;SDS011;68178;52.188;5.598;2023-04-29T05:26:01;32.88;;;22.98;;
19137;SDS011;68178;52.188;5.598;2023-04-29T05:28:26;34.60;;;23.02;;
19137;SDS011;68178;52.188;5.598;2023-04-29T05:30:55;32.67;;;23.75;;
19137;SDS011;68178;52.188;5.598;2023-04-29T05:33:20;29.73;;;21.35;;
19137;SDS011;68178;52.188;5.598;2023-04-29T05:35:46;32.40;;;23.02;;
19137;SDS011;68178;52.188;5.598;2023-04-29T05:38:11;30.13;;;21.35;;
19137;SDS011;68178;52.188;5.598;2023-04-29T05:40:37;33.92;;;22.90;;
19137;SDS011;68178;52.188;5.598;2023-04-29T05:43:02;28.67;;;21.55;;
19137;SDS011;68178;52.188;5.598;2023-04-29T05:45:28;36.33;;;22.58;;
19137;SDS011;68178;52.188;5.598;2023-04-29T05:47:53;31.67;;;21.92;;
19137;SDS011;68178;52.188;5.598;2023-04-29T05:50:19;32.30;;;21.77;;
19137;SDS011;68178;52.188;5.598;2023-04-29T05:52:45;33.05;;;21.83;;
19137;SDS011;68178;52.188;5.598;2023-04-29T05:55:10;34.30;;;22.17;;
19137;SDS011;68178;52.188;5.598;2023-04-29T05:57:36;31.00;;;20.50;;
19137;SDS011;68178;52.188;5.598;2023-04-29T06:00:01;34.50;;;20.25;;
19137;SDS011;68178;52.188;5.598;2023-04-29T06:02:27;31.02;;;20.92;;
19137;SDS011;68178;52.188;5.598;2023-04-29T06:04:53;30.02;;;20.90;;
19137;SDS011;68178;52.188;5.598;2023-04-29T06:07:18;29.90;;;20.52;;
19137;SDS011;68178;52.188;5.598;2023-04-29T06:09:44;33.38;;;20.70;;
19137;SDS011;68178;52.188;5.598;2023-04-29T06:12:10;30.05;;;20.00;;
19137;SDS011;68178;52.188;5.598;2023-04-29T06:14:36;27.15;;;19.42;;
19137;SDS011;68178;52.188;5.598;2023-04-29T06:17:01;26.73;;;18.35;;
19137;SDS011;68178;52.188;5.598;2023-04-29T06:19:27;23.40;;;17.65;;
19137;SDS011;68178;52.188;5.598;2023-04-29T06:21:53;24.23;;;17.33;;
19137;SDS011;68178;52.188;5.598;2023-04-29T06:24:19;24.88;;;16.98;;
19137;SDS011;68178;52.188;5.598;2023-04-29T06:26:44;24.20;;;17.50;;
19137;SDS011;68178;52.188;5.598;2023-04-29T06:29:10;27.63;;;17.58;;
19137;SDS011;68178;52.188;5.598;2023-04-29T06:31:36;23.17;;;16.60;;
19137;SDS011;68178;52.188;5.598;2023-04-29T06:34:02;25.45;;;16.38;;
19137;SDS011;68178;52.188;5.598;2023-04-29T06:36:28;26.00;;;17.13;;
19137;SDS011;68178;52.188;5.598;2023-04-29T06:38:53;29.02;;;17.50;;
19137;SDS011;68178;52.188;5.598;2023-04-29T06:41:19;25.15;;;17.13;;
19137;SDS011;68178;52.188;5.598;2023-04-29T06:43:45;27.73;;;17.60;;
19137;SDS011;68178;52.188;5.598;2023-04-29T06:46:10;25.27;;;16.40;;
19137;SDS011;68178;52.188;5.598;2023-04-29T06:48:37;27.08;;;17.65;;
19137;SDS011;68178;52.188;5.598;2023-04-29T06:51:02;24.67;;;16.35;;
19137;SDS011;68178;52.188;5.598;2023-04-29T06:53:28;26.38;;;16.88;;
19137;SDS011;68178;52.188;5.598;2023-04-29T06:55:54;26.08;;;16.40;;
19137;SDS011;68178;52.188;5.598;2023-04-29T06:58:19;24.90;;;17.08;;
19137;SDS011;68178;52.188;5.598;2023-04-29T07:00:46;28.77;;;17.45;;
19137;SDS011;68178;52.188;5.598;2023-04-29T07:03:13;27.38;;;17.55;;
19137;SDS011;68178;52.188;5.598;2023-04-29T07:05:39;23.38;;;16.27;;
19137;SDS011;68178;52.188;5.598;2023-04-29T07:08:06;22.55;;;16.15;;
19137;SDS011;68178;52.188;5.598;2023-04-29T07:10:32;21.90;;;15.23;;
19137;SDS011;68178;52.188;5.598;2023-04-29T07:12:58;26.17;;;15.98;;
19137;SDS011;68178;52.188;5.598;2023-04-29T07:15:25;21.05;;;14.57;;
19137;SDS011;68178;52.188;5.598;2023-04-29T07:17:51;24.02;;;16.08;;
19137;SDS011;68178;52.188;5.598;2023-04-29T07:20:17;25.00;;;16.00;;
19137;SDS011;68178;52.188;5.598;2023-04-29T07:22:43;22.42;;;15.18;;
19137;SDS011;68178;52.188;5.598;2023-04-29T07:25:08;20.42;;;14.70;;
19137;SDS011;68178;52.188;5.598;2023-04-29T07:27:35;20.13;;;14.55;;
19137;SDS011;68178;52.188;5.598;2023-04-29T07:30:01;18.73;;;13.88;;
19137;SDS011;68178;52.188;5.598;2023-04-29T07:32:28;17.73;;;13.20;;
19137;SDS011;68178;52.188;5.598;2023-04-29T07:34:55;19.45;;;13.45;;
19137;SDS011;68178;52.188;5.598;2023-04-29T07:37:21;20.98;;;13.13;;
19137;SDS011;68178;52.188;5.598;2023-04-29T07:39:47;17.23;;;13.32;;
19137;SDS011;68178;52.188;5.598;2023-04-29T07:42:12;20.08;;;12.93;;
19137;SDS011;68178;52.188;5.598;2023-04-29T07:44:38;16.50;;;13.10;;
19137;SDS011;68178;52.188;5.598;2023-04-29T07:47:03;20.23;;;12.30;;
19137;SDS011;68178;52.188;5.598;2023-04-29T07:49:29;15.80;;;11.55;;
19137;SDS011;68178;52.188;5.598;2023-04-29T07:51:55;16.15;;;11.75;;
19137;SDS011;68178;52.188;5.598;2023-04-29T07:54:20;15.18;;;11.13;;
19137;SDS011;68178;52.188;5.598;2023-04-29T07:56:46;18.08;;;12.32;;
19137;SDS011;68178;52.188;5.598;2023-04-29T07:59:12;17.70;;;11.20;;
19137;SDS011;68178;52.188;5.598;2023-04-29T08:01:39;14.15;;;10.70;;
19137;SDS011;68178;52.188;5.598;2023-04-29T08:04:05;13.82;;;10.35;;
19137;SDS011;68178;52.188;5.598;2023-04-29T08:06:31;14.00;;;9.90;;
19137;SDS011;68178;52.188;5.598;2023-04-29T08:08:58;11.95;;;9.90;;
19137;SDS011;68178;52.188;5.598;2023-04-29T08:11:24;11.50;;;8.38;;
19137;SDS011;68178;52.188;5.598;2023-04-29T08:13:51;10.77;;;9.43;;
19137;SDS011;68178;52.188;5.598;2023-04-29T08:16:17;12.27;;;9.55;;
19137;SDS011;68178;52.188;5.598;2023-04-29T08:18:43;12.52;;;9.43;;
19137;SDS011;68178;52.188;5.598;2023-04-29T08:21:08;11.40;;;8.38;;
19137;SDS011;68178;52.188;5.598;2023-04-29T08:23:38;10.77;;;8.63;;
19137;SDS011;68178;52.188;5.598;2023-04-29T08:26:05;11.25;;;8.73;;
19137;SDS011;68178;52.188;5.598;2023-04-29T08:28:31;13.13;;;8.63;;
19137;SDS011;68178;52.188;5.598;2023-04-29T08:30:57;10.20;;;8.57;;
19137;SDS011;68178;52.188;5.598;2023-04-29T08:33:23;13.55;;;8.50;;
19137;SDS011;68178;52.188;5.598;2023-04-29T08:35:56;10.73;;;8.68;;
19137;SDS011;68178;52.188;5.598;2023-04-29T08:38:22;12.38;;;8.52;;
19137;SDS011;68178;52.188;5.598;2023-04-29T08:40:48;12.10;;;8.60;;
19137;SDS011;68178;52.188;5.598;2023-04-29T08:43:13;10.27;;;8.43;;
19137;SDS011;68178;52.188;5.598;2023-04-29T08:45:40;8.60;;;7.68;;
19137;SDS011;68178;52.188;5.598;2023-04-29T08:48:07;9.50;;;8.20;;
19137;SDS011;68178;52.188;5.598;2023-04-29T08:50:37;9.07;;;8.18;;
19137;SDS011;68178;52.188;5.598;2023-04-29T08:53:05;9.73;;;7.90;;
19137;SDS011;68178;52.188;5.598;2023-04-29T08:55:46;8.63;;;7.32;;
19137;SDS011;68178;52.188;5.598;2023-04-29T08:58:13;8.77;;;7.90;;
19137;SDS011;68178;52.188;5.598;2023-04-29T09:00:41;9.70;;;7.78;;
19137;SDS011;68178;52.188;5.598;2023-04-29T09:03:12;12.32;;;8.18;;
19137;SDS011;68178;52.188;5.598;2023-04-29T09:05:42;11.23;;;7.90;;
19137;SDS011;68178;52.188;5.598;2023-04-29T09:08:09;10.35;;;8.00;;
19137;SDS011;68178;52.188;5.598;2023-04-29T09:10:37;11.32;;;8.52;;
19137;SDS011;68178;52.188;5.598;2023-04-29T09:13:05;9.73;;;8.20;;
19137;SDS011;68178;52.188;5.598;2023-04-29T09:15:37;10.20;;;8.18;;
19137;SDS011;68178;52.188;5.598;2023-04-29T09:18:06;12.18;;;8.10;;
19137;SDS011;68178;52.188;5.598;2023-04-29T09:20:32;11.30;;;9.00;;
19137;SDS011;68178;52.188;5.598;2023-04-29T09:23:01;10.75;;;8.40;;
19137;SDS011;68178;52.188;5.598;2023-04-29T09:25:28;11.77;;;9.20;;
19137;SDS011;68178;52.188;5.598;2023-04-29T09:27:57;11.70;;;9.20;;
19137;SDS011;68178;52.188;5.598;2023-04-29T09:30:23;10.65;;;8.65;;
19137;SDS011;68178;52.188;5.598;2023-04-29T09:33:04;11.93;;;8.50;;
19137;SDS011;68178;52.188;5.598;2023-04-29T09:35:31;10.93;;;9.43;;
19137;SDS011;68178;52.188;5.598;2023-04-29T09:38:10;12.10;;;9.20;;
19137;SDS011;68178;52.188;5.598;2023-04-29T09:40:38;11.70;;;8.48;;
19137;SDS011;68178;52.188;5.598;2023-04-29T09:43:11;11.98;;;7.93;;
19137;SDS011;68178;52.188;5.598;2023-04-29T09:45:39;12.30;;;8.23;;
19137;SDS011;68178;52.188;5.598;2023-04-29T09:48:07;11.13;;;8.73;;
19137;SDS011;68178;52.188;5.598;2023-04-29T09:50:34;8.82;;;7.60;;
19137;SDS011;68178;52.188;5.598;2023-04-29T09:53:06;8.20;;;7.05;;
19137;SDS011;68178;52.188;5.598;2023-04-29T09:55:34;8.10;;;6.55;;
19137;SDS011;68178;52.188;5.598;2023-04-29T09:58:00;10.75;;;7.38;;
19137;SDS011;68178;52.188;5.598;2023-04-29T10:00:27;8.38;;;6.95;;
19137;SDS011;68178;52.188;5.598;2023-04-29T10:02:59;10.07;;;7.53;;
19137;SDS011;68178;52.188;5.598;2023-04-29T10:05:28;9.65;;;7.65;;
19137;SDS011;68178;52.188;5.598;2023-04-29T10:07:57;8.70;;;7.00;;
19137;SDS011;68178;52.188;5.598;2023-04-29T10:10:23;11.07;;;7.03;;
19137;SDS011;68178;52.188;5.598;2023-04-29T10:12:52;9.38;;;7.35;;
19137;SDS011;68178;52.188;5.598;2023-04-29T10:15:24;8.30;;;7.45;;
19137;SDS011;68178;52.188;5.598;2023-04-29T10:18:18;10.40;;;7.15;;
19137;SDS011;68178;52.188;5.598;2023-04-29T10:20:46;7.60;;;6.78;;
19137;SDS011;68178;52.188;5.598;2023-04-29T10:23:16;7.78;;;6.78;;
19137;SDS011;68178;52.188;5.598;2023-04-29T10:25:44;7.18;;;6.43;;
19137;SDS011;68178;52.188;5.598;2023-04-29T10:28:13;8.05;;;6.10;;
19137;SDS011;68178;52.188;5.598;2023-04-29T10:30:42;9.85;;;6.68;;
19137;SDS011;68178;52.188;5.598;2023-04-29T10:33:09;11.55;;;6.78;;
19137;SDS011;68178;52.188;5.598;2023-04-29T10:35:36;7.93;;;6.28;;
19137;SDS011;68178;52.188;5.598;2023-04-29T10:38:04;8.60;;;6.38;;
19137;SDS011;68178;52.188;5.598;2023-04-29T10:40:44;9.75;;;6.82;;
19137;SDS011;68178;52.188;5.598;2023-04-29T10:43:11;7.82;;;5.85;;
19137;SDS011;68178;52.188;5.598;2023-04-29T10:45:37;7.63;;;5.30;;
19137;SDS011;68178;52.188;5.598;2023-04-29T10:50:33;8.13;;;5.63;;
19137;SDS011;68178;52.188;5.598;2023-04-29T10:53:12;6.30;;;5.70;;
19137;SDS011;68178;52.188;5.598;2023-04-29T10:55:38;7.45;;;6.10;;
19137;SDS011;68178;52.188;5.598;2023-04-29T10:58:05;7.55;;;6.70;;
19137;SDS011;68178;52.188;5.598;2023-04-29T11:00:50;7.60;;;6.50;;
19137;SDS011;68178;52.188;5.598;2023-04-29T11:03:43;8.75;;;6.05;;
19137;SDS011;68178;52.188;5.598;2023-04-29T11:06:09;7.32;;;6.63;;
19137;SDS011;68178;52.188;5.598;2023-04-29T11:08:38;9.30;;;6.68;;
19137;SDS011;68178;52.188;5.598;2023-04-29T11:11:05;8.15;;;7.35;;
19137;SDS011;68178;52.188;5.598;2023-04-29T11:13:31;8.57;;;7.28;;
19137;SDS011;68178;52.188;5.598;2023-04-29T11:16:08;6.50;;;5.90;;
19137;SDS011;68178;52.188;5.598;2023-04-29T11:18:36;7.85;;;6.50;;
19137;SDS011;68178;52.188;5.598;2023-04-29T11:21:20;9.18;;;6.95;;
19137;SDS011;68178;52.188;5.598;2023-04-29T11:23:47;8.90;;;6.45;;
19137;SDS011;68178;52.188;5.598;2023-04-29T11:26:18;11.77;;;7.13;;
19137;SDS011;68178;52.188;5.598;2023-04-29T11:28:44;9.20;;;6.97;;
19137;SDS011;68178;52.188;5.598;2023-04-29T11:31:10;7.10;;;5.70;;
19137;SDS011;68178;52.188;5.598;2023-04-29T11:33:35;6.25;;;5.60;;
19137;SDS011;68178;52.188;5.598;2023-04-29T11:36:01;9.32;;;7.35;;
19137;SDS011;68178;52.188;5.598;2023-04-29T11:38:28;11.23;;;7.35;;
19137;SDS011;68178;52.188;5.598;2023-04-29T11:40:55;13.07;;;7.93;;
19137;SDS011;68178;52.188;5.598;2023-04-29T11:43:21;9.18;;;7.30;;
19137;SDS011;68178;52.188;5.598;2023-04-29T11:45:48;8.13;;;7.32;;
19137;SDS011;68178;52.188;5.598;2023-04-29T11:48:21;9.82;;;7.07;;
19137;SDS011;68178;52.188;5.598;2023-04-29T11:50:50;7.78;;;6.47;;
19137;SDS011;68178;52.188;5.598;2023-04-29T11:53:23;7.03;;;6.10;;
19137;SDS011;68178;52.188;5.598;2023-04-29T11:55:53;6.65;;;6.10;;
19137;SDS011;68178;52.188;5.598;2023-04-29T11:58:19;8.02;;;5.78;;
19137;SDS011;68178;52.188;5.598;2023-04-29T12:00:49;9.02;;;5.95;;
19137;SDS011;68178;52.188;5.598;2023-04-29T12:03:16;10.85;;;5.50;;
19137;SDS011;68178;52.188;5.598;2023-04-29T12:05:46;7.95;;;6.13;;
19137;SDS011;68178;52.188;5.598;2023-04-29T12:08:18;7.63;;;5.95;;
19137;SDS011;68178;52.188;5.598;2023-04-29T12:10:45;10.57;;;7.60;;
19137;SDS011;68178;52.188;5.598;2023-04-29T12:13:12;7.70;;;7.00;;
19137;SDS011;68178;52.188;5.598;2023-04-29T12:15:38;7.75;;;7.05;;
19137;SDS011;68178;52.188;5.598;2023-04-29T12:18:04;7.05;;;6.05;;
19137;SDS011;68178;52.188;5.598;2023-04-29T12:20:29;9.40;;;6.07;;
19137;SDS011;68178;52.188;5.598;2023-04-29T12:22:55;7.72;;;6.72;;
19137;SDS011;68178;52.188;5.598;2023-04-29T12:25:26;9.32;;;6.40;;
19137;SDS011;68178;52.188;5.598;2023-04-29T12:27:57;10.63;;;7.30;;
19137;SDS011;68178;52.188;5.598;2023-04-29T12:30:23;7.63;;;6.80;;
19137;SDS011;68178;52.188;5.598;2023-04-29T12:32:50;8.43;;;7.15;;
19137;SDS011;68178;52.188;5.598;2023-04-29T12:35:16;11.07;;;7.45;;
19137;SDS011;68178;52.188;5.598;2023-04-29T12:37:42;8.15;;;6.82;;
19137;SDS011;68178;52.188;5.598;2023-04-29T12:40:14;6.65;;;6.03;;
19137;SDS011;68178;52.188;5.598;2023-04-29T12:42:40;7.40;;;6.43;;
19137;SDS011;68178;52.188;5.598;2023-04-29T12:45:06;7.78;;;7.07;;
19137;SDS011;68178;52.188;5.598;2023-04-29T12:47:32;7.57;;;6.88;;
19137;SDS011;68178;52.188;5.598;2023-04-29T12:49:59;7.55;;;6.85;;
19137;SDS011;68178;52.188;5.598;2023-04-29T12:52:25;9.02;;;6.65;;
19137;SDS011;68178;52.188;5.598;2023-04-29T12:54:50;9.10;;;6.05;;
19137;SDS011;68178;52.188;5.598;2023-04-29T12:57:16;7.18;;;6.47;;
19137;SDS011;68178;52.188;5.598;2023-04-29T12:59:41;7.82;;;6.45;;
19137;SDS011;68178;52.188;5.598;2023-04-29T13:02:07;7.85;;;5.85;;
19137;SDS011;68178;52.188;5.598;2023-04-29T13:04:33;6.07;;;5.47;;
19137;SDS011;68178;52.188;5.598;2023-04-29T13:06:58;8.63;;;6.22;;
19137;SDS011;68178;52.188;5.598;2023-04-29T13:09:27;7.18;;;6.50;;
19137;SDS011;68178;52.188;5.598;2023-04-29T13:11:54;6.93;;;6.22;;
19137;SDS011;68178;52.188;5.598;2023-04-29T13:14:20;8.75;;;6.90;;
19137;SDS011;68178;52.188;5.598;2023-04-29T13:16:45;6.72;;;6.00;;
19137;SDS011;68178;52.188;5.598;2023-04-29T13:19:11;7.15;;;6.40;;
19137;SDS011;68178;52.188;5.598;2023-04-29T13:21:37;7.80;;;7.10;;
19137;SDS011;68178;52.188;5.598;2023-04-29T13:24:03;7.18;;;6.45;;
19137;SDS011;68178;52.188;5.598;2023-04-29T13:26:29;6.82;;;6.10;;
19137;SDS011;68178;52.188;5.598;2023-04-29T13:28:54;7.78;;;7.00;;
19137;SDS011;68178;52.188;5.598;2023-04-29T13:31:20;6.65;;;6.05;;
19137;SDS011;68178;52.188;5.598;2023-04-29T13:33:45;6.45;;;5.88;;
19137;SDS011;68178;52.188;5.598;2023-04-29T13:36:12;9.90;;;6.82;;
19137;SDS011;68178;52.188;5.598;2023-04-29T13:38:38;6.93;;;5.72;;
19137;SDS011;68178;52.188;5.598;2023-04-29T13:41:04;8.10;;;6.80;;
19137;SDS011;68178;52.188;5.598;2023-04-29T13:43:36;8.10;;;6.88;;
19137;SDS011;68178;52.188;5.598;2023-04-29T13:46:01;6.47;;;5.38;;
19137;SDS011;68178;52.188;5.598;2023-04-29T13:48:27;6.85;;;6.13;;
19137;SDS011;68178;52.188;5.598;2023-04-29T13:50:52;6.35;;;5.75;;
19137;SDS011;68178;52.188;5.598;2023-04-29T13:53:19;7.32;;;6.03;;
19137;SDS011;68178;52.188;5.598;2023-04-29T13:55:44;7.65;;;5.45;;
19137;SDS011;68178;52.188;5.598;2023-04-29T13:58:10;6.15;;;5.55;;
19137;SDS011;68178;52.188;5.598;2023-04-29T14:00:36;7.05;;;5.85;;
19137;SDS011;68178;52.188;5.598;2023-04-29T14:03:03;7.03;;;6.32;;
19137;SDS011;68178;52.188;5.598;2023-04-29T14:05:30;7.13;;;6.15;;
19137;SDS011;68178;52.188;5.598;2023-04-29T14:07:59;6.32;;;5.82;;
19137;SDS011;68178;52.188;5.598;2023-04-29T14:10:25;6.82;;;6.07;;
19137;SDS011;68178;52.188;5.598;2023-04-29T14:12:51;7.07;;;5.75;;
19137;SDS011;68178;52.188;5.598;2023-04-29T14:15:16;6.88;;;6.18;;
19137;SDS011;68178;52.188;5.598;2023-04-29T14:17:42;7.78;;;6.53;;
19137;SDS011;68178;52.188;5.598;2023-04-29T14:20:07;11.32;;;6.97;;
19137;SDS011;68178;52.188;5.598;2023-04-29T14:22:33;8.57;;;6.90;;
19137;SDS011;68178;52.188;5.598;2023-04-29T14:24:59;6.82;;;5.90;;
19137;SDS011;68178;52.188;5.598;2023-04-29T14:27:25;6.40;;;5.00;;
19137;SDS011;68178;52.188;5.598;2023-04-29T14:29:50;6.40;;;5.20;;
19137;SDS011;68178;52.188;5.598;2023-04-29T14:32:16;7.72;;;5.30;;
19137;SDS011;68178;52.188;5.598;2023-04-29T14:34:41;6.65;;;5.55;;
19137;SDS011;68178;52.188;5.598;2023-04-29T14:37:07;6.72;;;5.90;;
19137;SDS011;68178;52.188;5.598;2023-04-29T14:39:34;6.38;;;5.78;;
19137;SDS011;68178;52.188;5.598;2023-04-29T14:41:59;6.47;;;5.72;;
19137;SDS011;68178;52.188;5.598;2023-04-29T14:44:26;7.68;;;5.50;;
19137;SDS011;68178;52.188;5.598;2023-04-29T14:46:52;6.15;;;5.55;;